createdAt,value
2022-09-26T00:00:12.683Z,99.99
2022-09-26T00:01:02.744Z,99.99
2022-09-26T00:01:52.724Z,99.99
2022-09-26T00:02:42.691Z,99.99
2022-09-26T00:03:32.616Z,99.99
2022-09-26T00:04:24.119Z,99.99
2022-09-26T00:05:12.601Z,99.99
2022-09-26T00:06:02.617Z,99.99
2022-09-26T00:06:52.578Z,99.99
2022-09-26T00:07:42.577Z,99.99
2022-09-26T00:08:32.562Z,99.99
2022-09-26T00:09:22.565Z,99.99
2022-09-26T00:10:12.536Z,99.99
2022-09-26T00:11:02.537Z,99.99
2022-09-26T00:11:52.545Z,99.99
2022-09-26T00:12:42.515Z,99.99
2022-09-26T00:13:32.510Z,99.99
2022-09-26T00:14:22.505Z,99.99
2022-09-26T00:15:12.491Z,99.99
2022-09-26T00:16:02.684Z,99.99
2022-09-26T00:16:52.513Z,99.99
2022-09-26T00:17:42.465Z,99.99
2022-09-26T00:18:32.460Z,99.99
2022-09-26T00:19:22.445Z,99.99
2022-09-26T00:20:12.435Z,99.99
2022-09-26T00:21:02.436Z,99.99
2022-09-26T00:21:52.434Z,99.99
2022-09-26T00:22:42.415Z,99.99
2022-09-26T00:23:32.394Z,99.99
2022-09-26T00:24:22.386Z,99.99
2022-09-26T00:25:12.374Z,99.99
2022-09-26T00:26:02.367Z,99.99
2022-09-26T00:26:52.359Z,99.99
2022-09-26T00:27:42.364Z,99.99
2022-09-26T00:28:32.347Z,99.99
2022-09-26T00:29:22.337Z,99.99
2022-09-26T00:30:12.317Z,99.99
2022-09-26T00:31:02.557Z,99.99
2022-09-26T00:31:52.309Z,99.99
2022-09-26T00:32:42.293Z,99.99
2022-09-26T00:33:32.326Z,99.99
2022-09-26T00:34:22.273Z,99.99
2022-09-26T00:35:12.266Z,99.99
2022-09-26T00:36:02.278Z,99.99
2022-09-26T00:36:52.245Z,99.99
2022-09-26T00:37:42.235Z,99.99
2022-09-26T00:38:32.234Z,99.99
2022-09-26T00:39:22.246Z,99.99
2022-09-26T00:40:12.252Z,99.99
2022-09-26T00:41:02.286Z,99.99
2022-09-26T00:41:52.185Z,99.99
2022-09-26T00:42:42.182Z,99.99
2022-09-26T00:43:32.173Z,99.99
2022-09-26T00:44:22.433Z,99.99
2022-09-26T00:45:12.151Z,99.99
2022-09-26T00:46:02.197Z,99.99
2022-09-26T00:46:52.132Z,99.99
2022-09-26T00:47:42.133Z,99.99
2022-09-26T00:48:32.112Z,99.99
2022-09-26T00:49:22.109Z,99.99
2022-09-26T00:50:12.135Z,99.99
2022-09-26T00:51:02.098Z,99.99
2022-09-26T00:51:52.090Z,99.99
2022-09-26T00:52:42.079Z,99.99
2022-09-26T00:53:32.061Z,99.99
2022-09-26T00:54:22.066Z,99.99
2022-09-26T00:55:12.042Z,99.99
2022-09-26T00:56:02.066Z,99.99
2022-09-26T00:56:52.023Z,99.99
2022-09-26T00:57:42.020Z,99.99
2022-09-26T00:58:32.029Z,99.99
2022-09-26T00:59:21.999Z,99.99
2022-09-26T01:00:11.982Z,99.99
2022-09-26T01:01:02.099Z,99.99
2022-09-26T01:01:52.089Z,99.99
2022-09-26T01:02:42.070Z,99.99
2022-09-26T01:03:31.947Z,99.99
2022-09-26T01:04:21.940Z,99.99
2022-09-26T01:05:11.928Z,99.99
2022-09-26T01:06:01.920Z,99.99
2022-09-26T01:06:51.910Z,99.99
2022-09-26T01:07:42.138Z,99.99
2022-09-26T01:08:31.898Z,99.99
2022-09-26T01:09:21.889Z,99.99
2022-09-26T01:10:11.881Z,99.99
2022-09-26T01:11:01.871Z,99.99
2022-09-26T01:11:51.850Z,99.99
2022-09-26T01:12:41.849Z,99.99
2022-09-26T01:13:31.868Z,99.99
2022-09-26T01:14:21.838Z,99.99
2022-09-26T01:15:11.817Z,99.99
2022-09-26T01:16:01.810Z,99.99
2022-09-26T01:16:51.863Z,99.99
2022-09-26T01:17:41.789Z,99.99
2022-09-26T01:18:31.787Z,99.99
2022-09-26T01:19:21.812Z,99.99
2022-09-26T01:20:11.758Z,99.99
2022-09-26T01:21:01.754Z,99.99
2022-09-26T01:21:51.740Z,99.99
2022-09-26T01:22:41.750Z,99.99
2022-09-26T01:23:31.725Z,99.99
2022-09-26T01:24:21.719Z,99.99
2022-09-26T01:25:11.728Z,99.99
2022-09-26T01:26:01.700Z,99.99
2022-09-26T01:26:51.687Z,99.99
2022-09-26T01:27:41.689Z,99.99
2022-09-26T01:28:31.673Z,99.99
2022-09-26T01:29:21.666Z,99.99
2022-09-26T01:30:11.688Z,99.99
2022-09-26T01:31:01.961Z,99.99
2022-09-26T01:31:51.640Z,99.99
2022-09-26T01:32:41.630Z,99.99
2022-09-26T01:33:31.608Z,99.99
2022-09-26T01:34:21.610Z,99.99
2022-09-26T01:35:11.608Z,99.99
2022-09-26T01:36:01.667Z,99.99
2022-09-26T01:36:51.580Z,99.99
2022-09-26T01:37:41.576Z,99.99
2022-09-26T01:38:31.557Z,99.99
2022-09-26T01:39:21.557Z,99.99
2022-09-26T01:40:11.606Z,99.99
2022-09-26T01:41:01.529Z,99.99
2022-09-26T01:41:51.736Z,99.99
2022-09-26T01:42:41.516Z,99.99
2022-09-26T01:43:31.499Z,99.99
2022-09-26T01:44:21.496Z,99.99
2022-09-26T01:45:11.511Z,99.99
2022-09-26T01:46:01.547Z,99.99
2022-09-26T01:46:51.479Z,99.99
2022-09-26T01:47:41.482Z,99.99
2022-09-26T01:48:31.488Z,99.99
2022-09-26T01:49:21.435Z,99.99
2022-09-26T01:50:11.425Z,99.99
2022-09-26T01:51:01.418Z,99.99
2022-09-26T01:51:51.415Z,99.99
2022-09-26T01:52:41.403Z,99.99
2022-09-26T01:53:31.386Z,99.99
2022-09-26T01:54:21.588Z,99.99
2022-09-26T01:55:11.383Z,99.99
2022-09-26T01:56:01.358Z,99.99
2022-09-26T01:56:51.357Z,99.99
2022-09-26T01:57:41.345Z,99.99
2022-09-26T01:58:31.341Z,99.99
2022-09-26T01:59:21.331Z,99.99
2022-09-26T02:00:11.344Z,99.99
2022-09-26T02:01:01.357Z,99.99
2022-09-26T02:01:51.319Z,99.99
2022-09-26T02:02:41.342Z,99.99
2022-09-26T02:03:31.277Z,99.99
2022-09-26T02:04:21.274Z,99.99
2022-09-26T02:05:11.269Z,99.99
2022-09-26T02:06:01.306Z,99.99
2022-09-26T02:06:51.248Z,99.99
2022-09-26T02:07:41.224Z,99.99
2022-09-26T02:08:31.224Z,99.99
2022-09-26T02:09:21.213Z,99.99
2022-09-26T02:10:11.209Z,99.99
2022-09-26T02:11:01.192Z,99.99
2022-09-26T02:11:51.228Z,99.99
2022-09-26T02:12:41.177Z,99.99
2022-09-26T02:13:31.166Z,99.99
2022-09-26T02:14:21.162Z,99.99
2022-09-26T02:15:11.150Z,99.99
2022-09-26T02:16:01.134Z,99.99
2022-09-26T02:16:51.216Z,99.99
2022-09-26T02:17:41.186Z,99.99
2022-09-26T02:18:31.122Z,99.99
2022-09-26T02:19:21.107Z,99.99
2022-09-26T02:20:11.099Z,99.99
2022-09-26T02:21:01.081Z,99.99
2022-09-26T02:21:51.077Z,99.99
2022-09-26T02:22:41.061Z,99.99
2022-09-26T02:23:31.072Z,99.99
2022-09-26T02:24:21.043Z,99.99
2022-09-26T02:25:11.273Z,99.99
2022-09-26T02:26:01.347Z,99.99
2022-09-26T02:26:51.022Z,99.99
2022-09-26T02:27:41.001Z,99.99
2022-09-26T02:28:31.011Z,99.99
2022-09-26T02:29:20.990Z,99.99
2022-09-26T02:30:10.983Z,99.99
2022-09-26T02:31:00.973Z,99.99
2022-09-26T02:31:51.043Z,99.99
2022-09-26T02:32:40.951Z,99.99
2022-09-26T02:33:30.951Z,99.99
2022-09-26T02:34:20.931Z,99.99
2022-09-26T02:35:10.929Z,99.99
2022-09-26T02:36:00.911Z,99.99
2022-09-26T02:36:50.913Z,99.99
2022-09-26T02:37:40.919Z,99.99
2022-09-26T02:38:30.895Z,99.99
2022-09-26T02:39:20.873Z,99.99
2022-09-26T02:40:10.941Z,99.99
2022-09-26T02:41:00.948Z,99.99
2022-09-26T02:41:50.862Z,99.99
2022-09-26T02:42:40.839Z,99.99
2022-09-26T02:43:31.031Z,99.99
2022-09-26T02:44:20.820Z,99.99
2022-09-26T02:45:10.821Z,99.99
2022-09-26T02:46:00.869Z,99.99
2022-09-26T02:46:50.798Z,99.99
2022-09-26T02:47:40.820Z,99.99
2022-09-26T02:48:30.790Z,99.99
2022-09-26T02:49:20.789Z,99.99
2022-09-26T02:50:10.763Z,99.99
2022-09-26T02:51:00.773Z,99.99
2022-09-26T02:51:50.741Z,99.99
2022-09-26T02:52:40.729Z,99.99
2022-09-26T02:53:30.723Z,99.99
2022-09-26T02:54:20.708Z,99.99
2022-09-26T02:55:10.730Z,99.99
2022-09-26T02:56:00.698Z,99.99
2022-09-26T02:56:50.689Z,99.99
2022-09-26T02:57:40.671Z,99.99
2022-09-26T02:58:30.667Z,99.99
2022-09-26T02:59:20.658Z,99.99
2022-09-26T03:00:10.648Z,99.99
2022-09-26T03:01:00.985Z,99.99
2022-09-26T03:01:50.652Z,99.99
2022-09-26T03:02:40.627Z,99.99
2022-09-26T03:03:30.658Z,99.99
2022-09-26T03:04:20.644Z,99.99
2022-09-26T03:05:10.659Z,99.99
2022-09-26T03:06:00.577Z,99.99
2022-09-26T03:06:50.596Z,99.99
2022-09-26T03:07:40.568Z,99.99
2022-09-26T03:08:30.558Z,99.99
2022-09-26T03:09:20.548Z,99.99
2022-09-26T03:10:10.538Z,99.99
2022-09-26T03:11:00.526Z,99.99
2022-09-26T03:11:50.517Z,99.99
2022-09-26T03:12:40.535Z,99.99
2022-09-26T03:13:30.506Z,99.99
2022-09-26T03:14:20.487Z,99.99
2022-09-26T03:15:10.477Z,99.99
2022-09-26T03:16:00.529Z,99.99
2022-09-26T03:16:50.531Z,99.99
2022-09-26T03:17:40.461Z,99.99
2022-09-26T03:18:30.479Z,99.99
2022-09-26T03:19:20.428Z,99.99
2022-09-26T03:20:10.430Z,99.99
2022-09-26T03:21:00.412Z,99.99
2022-09-26T03:21:50.415Z,99.99
2022-09-26T03:22:40.395Z,99.99
2022-09-26T03:23:30.394Z,99.99
2022-09-26T03:24:20.585Z,99.99
2022-09-26T03:25:10.398Z,99.99
2022-09-26T03:26:00.396Z,99.99
2022-09-26T03:26:50.354Z,99.99
2022-09-26T03:27:40.336Z,99.99
2022-09-26T03:28:35.307Z,99.99
2022-09-26T03:29:21.366Z,99.99
2022-09-26T03:30:10.320Z,99.99
2022-09-26T03:31:00.304Z,99.99
2022-09-26T03:31:50.549Z,99.99
2022-09-26T03:32:40.285Z,99.99
2022-09-26T03:33:30.275Z,99.99
2022-09-26T03:34:20.265Z,99.99
2022-09-26T03:35:11.041Z,99.99
2022-09-26T03:36:00.302Z,99.99
2022-09-26T03:36:50.241Z,99.99
2022-09-26T03:37:40.228Z,99.99
2022-09-26T03:38:30.224Z,99.99
2022-09-26T03:39:20.203Z,99.99
2022-09-26T03:40:10.299Z,99.99
2022-09-26T03:41:00.312Z,99.99
2022-09-26T03:41:50.185Z,99.99
2022-09-26T03:42:40.173Z,99.99
2022-09-26T03:43:30.183Z,99.99
2022-09-26T03:44:20.152Z,99.99
2022-09-26T03:45:10.154Z,99.99
2022-09-26T03:46:00.222Z,99.99
2022-09-26T03:46:50.152Z,99.99
2022-09-26T03:47:40.113Z,99.99
2022-09-26T03:48:30.112Z,99.99
2022-09-26T03:49:20.099Z,99.99
2022-09-26T03:50:10.094Z,99.99
2022-09-26T03:51:00.079Z,99.99
2022-09-26T03:51:50.086Z,99.99
2022-09-26T03:52:40.082Z,99.99
2022-09-26T03:53:30.053Z,99.99
2022-09-26T03:54:20.049Z,99.99
2022-09-26T03:55:10.042Z,99.99
2022-09-26T03:56:00.031Z,99.99
2022-09-26T03:56:50.024Z,99.99
2022-09-26T03:57:40.009Z,99.99
2022-09-26T03:58:30.042Z,99.99
2022-09-26T03:59:19.981Z,99.99
2022-09-26T04:00:09.982Z,99.99
2022-09-26T04:01:00.001Z,99.99
2022-09-26T04:01:50.024Z,99.99
2022-09-26T04:02:39.987Z,99.99
2022-09-26T04:03:29.952Z,99.99
2022-09-26T04:04:20.141Z,99.99
2022-09-26T04:05:09.922Z,99.99
2022-09-26T04:05:59.910Z,99.99
2022-09-26T04:06:49.912Z,99.99
2022-09-26T04:07:39.905Z,99.99
2022-09-26T04:08:29.883Z,99.99
2022-09-26T04:09:20.107Z,99.99
2022-09-26T04:10:09.901Z,99.99
2022-09-26T04:10:59.854Z,99.99
2022-09-26T04:11:49.871Z,99.99
2022-09-26T04:12:39.835Z,99.99
2022-09-26T04:13:53.752Z,99.99
2022-09-26T04:14:20.822Z,99.99
2022-09-26T04:15:09.811Z,99.99
2022-09-26T04:15:59.850Z,99.99
2022-09-26T04:16:49.815Z,99.99
2022-09-26T04:17:39.788Z,99.99
2022-09-26T04:18:29.798Z,99.99
2022-09-26T04:19:19.770Z,99.99
2022-09-26T04:20:09.759Z,99.99
2022-09-26T04:20:59.751Z,99.99
2022-09-26T04:21:49.782Z,99.99
2022-09-26T04:22:39.721Z,99.99
2022-09-26T04:23:29.722Z,99.99
2022-09-26T04:24:19.715Z,99.99
2022-09-26T04:25:09.708Z,99.99
2022-09-26T04:25:59.689Z,99.99
2022-09-26T04:26:49.682Z,99.99
2022-09-26T04:27:39.699Z,99.99
2022-09-26T04:28:29.659Z,99.99
2022-09-26T04:29:19.649Z,99.99
2022-09-26T04:30:09.651Z,99.99
2022-09-26T04:30:59.629Z,99.99
2022-09-26T04:31:49.715Z,99.99
2022-09-26T04:32:39.612Z,99.99
2022-09-26T04:33:29.837Z,99.99
2022-09-26T04:34:23.467Z,99.99
2022-09-26T04:35:10.597Z,99.99
2022-09-26T04:35:59.571Z,99.99
2022-09-26T04:36:49.636Z,99.99
2022-09-26T04:37:39.560Z,99.99
2022-09-26T04:38:29.550Z,99.99
2022-09-26T04:39:19.565Z,99.99
2022-09-26T04:40:09.531Z,99.99
2022-09-26T04:40:59.645Z,99.99
2022-09-26T04:41:49.529Z,99.99
2022-09-26T04:42:39.518Z,99.99
2022-09-26T04:43:29.497Z,99.99
2022-09-26T04:44:19.479Z,99.99
2022-09-26T04:45:09.508Z,99.99
2022-09-26T04:45:59.519Z,99.99
2022-09-26T04:46:49.456Z,99.99
2022-09-26T04:47:39.504Z,99.99
2022-09-26T04:48:29.449Z,99.99
2022-09-26T04:49:19.431Z,99.99
2022-09-26T04:50:09.418Z,99.99
2022-09-26T04:50:59.611Z,99.99
2022-09-26T04:51:49.411Z,99.99
2022-09-26T04:52:39.390Z,99.99
2022-09-26T04:53:29.401Z,99.99
2022-09-26T04:54:19.578Z,99.99
2022-09-26T04:55:09.366Z,99.99
2022-09-26T04:55:59.349Z,99.99
2022-09-26T04:56:49.357Z,99.99
2022-09-26T04:57:39.329Z,99.99
2022-09-26T04:58:29.362Z,99.99
2022-09-26T04:59:19.321Z,99.99
2022-09-26T05:00:09.307Z,99.99
2022-09-26T05:00:59.320Z,99.99
2022-09-26T05:01:49.331Z,99.99
2022-09-26T05:02:39.338Z,99.99
2022-09-26T05:03:29.266Z,99.99
2022-09-26T05:04:22.808Z,99.99
2022-09-26T05:05:10.267Z,99.99
2022-09-26T05:05:59.264Z,99.99
2022-09-26T05:06:49.227Z,99.99
2022-09-26T05:07:39.217Z,99.99
2022-09-26T05:08:29.226Z,99.99
2022-09-26T05:09:19.208Z,99.99
2022-09-26T05:10:09.225Z,99.99
2022-09-26T05:10:59.186Z,99.99
2022-09-26T05:11:49.175Z,99.99
2022-09-26T05:12:39.169Z,99.99
2022-09-26T05:13:29.155Z,99.99
2022-09-26T05:14:19.151Z,99.99
2022-09-26T05:15:09.147Z,99.99
2022-09-26T05:15:59.191Z,99.99
2022-09-26T05:16:49.243Z,99.99
2022-09-26T05:17:39.107Z,99.99
2022-09-26T05:18:29.105Z,99.99
2022-09-26T05:19:19.091Z,99.99
2022-09-26T05:20:09.085Z,99.99
2022-09-26T05:20:59.077Z,99.99
2022-09-26T05:21:49.096Z,99.99
2022-09-26T05:22:39.057Z,99.99
2022-09-26T05:23:29.044Z,99.99
2022-09-26T05:24:19.034Z,99.99
2022-09-26T05:25:09.029Z,99.99
2022-09-26T05:25:59.022Z,99.99
2022-09-26T05:26:49.006Z,99.99
2022-09-26T05:27:39.233Z,99.99
2022-09-26T05:28:28.995Z,99.99
2022-09-26T05:29:19.139Z,99.99
2022-09-26T05:30:08.988Z,99.99
2022-09-26T05:30:58.973Z,99.99
2022-09-26T05:31:49.026Z,99.99
2022-09-26T05:32:38.942Z,99.99
2022-09-26T05:33:28.963Z,99.99
2022-09-26T05:34:20.360Z,99.99
2022-09-26T05:35:08.916Z,99.99
2022-09-26T05:35:58.910Z,99.99
2022-09-26T05:36:48.894Z,99.99
2022-09-26T05:37:38.885Z,99.99
2022-09-26T05:38:28.872Z,99.99
2022-09-26T05:39:18.918Z,99.99
2022-09-26T05:40:08.872Z,99.99
2022-09-26T05:40:58.907Z,99.99
2022-09-26T05:41:48.844Z,99.99
2022-09-26T05:42:38.840Z,99.99
2022-09-26T05:43:28.851Z,99.99
2022-09-26T05:44:18.848Z,99.99
2022-09-26T05:45:08.830Z,99.99
2022-09-26T05:45:58.798Z,99.99
2022-09-26T05:46:48.836Z,99.99
2022-09-26T05:47:38.781Z,99.99
2022-09-26T05:48:28.772Z,99.99
2022-09-26T05:49:18.761Z,99.99
2022-09-26T05:50:08.757Z,99.99
2022-09-26T05:50:58.776Z,99.99
2022-09-26T05:51:48.729Z,99.99
2022-09-26T05:52:38.746Z,99.99
2022-09-26T05:53:28.720Z,99.99
2022-09-26T05:54:18.711Z,99.99
2022-09-26T05:55:08.692Z,99.99
2022-09-26T05:55:58.691Z,99.99
2022-09-26T05:56:48.740Z,99.99
2022-09-26T05:57:38.662Z,99.99
2022-09-26T05:58:28.652Z,99.99
2022-09-26T05:59:18.695Z,99.99
2022-09-26T06:00:08.633Z,99.99
2022-09-26T06:00:58.679Z,99.99
2022-09-26T06:01:48.645Z,99.99
2022-09-26T06:02:38.754Z,99.99
2022-09-26T06:03:28.602Z,99.99
2022-09-26T06:04:18.593Z,99.99
2022-09-26T06:05:08.580Z,99.99
2022-09-26T06:05:58.590Z,99.99
2022-09-26T06:06:48.560Z,99.99
2022-09-26T06:07:38.561Z,99.99
2022-09-26T06:08:28.751Z,99.99
2022-09-26T06:09:18.543Z,99.99
2022-09-26T06:10:08.536Z,99.99
2022-09-26T06:10:58.522Z,99.99
2022-09-26T06:11:48.500Z,99.99
2022-09-26T06:12:38.501Z,99.99
2022-09-26T06:13:28.489Z,99.99
2022-09-26T06:14:18.530Z,99.99
2022-09-26T06:15:08.479Z,99.99
2022-09-26T06:15:58.530Z,99.99
2022-09-26T06:16:48.545Z,99.99
2022-09-26T06:17:38.441Z,99.99
2022-09-26T06:18:28.430Z,99.99
2022-09-26T06:19:22.822Z,99.99
2022-09-26T06:20:08.441Z,99.99
2022-09-26T06:20:58.409Z,99.99
2022-09-26T06:21:48.421Z,99.99
2022-09-26T06:22:38.388Z,99.99
2022-09-26T06:23:28.379Z,99.99
2022-09-26T06:24:18.375Z,99.99
2022-09-26T06:25:08.367Z,99.99
2022-09-26T06:25:58.379Z,99.99
2022-09-26T06:26:48.398Z,99.99
2022-09-26T06:27:38.333Z,99.99
2022-09-26T06:28:28.337Z,99.99
2022-09-26T06:29:18.320Z,99.99
2022-09-26T06:30:08.301Z,99.99
2022-09-26T06:30:58.333Z,99.99
2022-09-26T06:31:48.711Z,99.99
2022-09-26T06:32:38.280Z,99.99
2022-09-26T06:33:32.647Z,99.99
2022-09-26T06:34:19.273Z,99.99
2022-09-26T06:35:08.248Z,99.99
2022-09-26T06:35:58.245Z,99.99
2022-09-26T06:36:48.235Z,99.99
2022-09-26T06:37:38.310Z,99.99
2022-09-26T06:38:28.217Z,99.99
2022-09-26T06:39:18.207Z,99.99
2022-09-26T06:40:08.196Z,99.99
2022-09-26T06:40:58.311Z,99.99
2022-09-26T06:41:48.191Z,99.99
2022-09-26T06:42:38.169Z,99.99
2022-09-26T06:43:28.179Z,99.99
2022-09-26T06:44:18.148Z,99.99
2022-09-26T06:45:08.136Z,99.99
2022-09-26T06:45:58.182Z,99.99
2022-09-26T06:46:48.158Z,99.99
2022-09-26T06:47:38.118Z,99.99
2022-09-26T06:48:28.095Z,99.99
2022-09-26T06:49:18.309Z,99.99
2022-09-26T06:50:08.105Z,99.99
2022-09-26T06:50:58.079Z,99.99
2022-09-26T06:51:48.093Z,99.99
2022-09-26T06:52:38.057Z,99.99
2022-09-26T06:53:28.055Z,99.99
2022-09-26T06:54:18.055Z,99.99
2022-09-26T06:55:08.240Z,99.99
2022-09-26T06:55:58.016Z,99.99
2022-09-26T06:56:48.020Z,99.99
2022-09-26T06:57:38.001Z,99.99
2022-09-26T06:58:27.986Z,99.99
2022-09-26T06:59:17.985Z,99.99
2022-09-26T07:00:07.973Z,99.99
2022-09-26T07:00:58.285Z,99.99
2022-09-26T07:01:48.087Z,99.99
2022-09-26T07:02:37.947Z,99.99
2022-09-26T07:03:27.937Z,99.99
2022-09-26T07:04:17.962Z,99.99
2022-09-26T07:05:07.920Z,99.99
2022-09-26T07:05:57.912Z,99.99
2022-09-26T07:06:47.916Z,99.99
2022-09-26T07:07:37.898Z,99.99
2022-09-26T07:08:57.362Z,99.99
2022-09-26T07:09:19.114Z,99.99
2022-09-26T07:10:07.877Z,99.99
2022-09-26T07:11:06.421Z,99.99
2022-09-26T07:12:13.437Z,99.99
2022-09-26T07:12:38.832Z,99.99
2022-09-26T07:13:27.824Z,99.99
2022-09-26T07:14:17.818Z,99.99
2022-09-26T07:15:07.801Z,99.99
2022-09-26T07:15:57.890Z,99.99
2022-09-26T07:16:47.793Z,99.99
2022-09-26T07:17:37.817Z,99.99
2022-09-26T07:18:27.800Z,99.99
2022-09-26T07:19:17.754Z,99.99
2022-09-26T07:20:07.745Z,99.99
2022-09-26T07:20:57.771Z,99.99
2022-09-26T07:21:47.728Z,99.99
2022-09-26T07:22:37.726Z,99.99
2022-09-26T07:23:27.753Z,99.99
2022-09-26T07:24:17.720Z,99.99
2022-09-26T07:25:07.685Z,99.99
2022-09-26T07:25:57.693Z,99.99
2022-09-26T07:26:47.674Z,99.99
2022-09-26T07:27:37.673Z,99.99
2022-09-26T07:28:27.678Z,99.99
2022-09-26T07:29:17.675Z,99.99
2022-09-26T07:30:07.633Z,99.99
2022-09-26T07:30:57.624Z,99.99
2022-09-26T07:31:47.653Z,99.99
2022-09-26T07:32:37.608Z,99.99
2022-09-26T07:33:27.610Z,99.99
2022-09-26T07:34:18.750Z,99.99
2022-09-26T07:35:07.695Z,99.99
2022-09-26T07:35:59.808Z,99.99
2022-09-26T07:36:48.561Z,99.99
2022-09-26T07:37:37.552Z,99.99
2022-09-26T07:38:27.545Z,99.99
2022-09-26T07:39:17.538Z,99.99
2022-09-26T07:40:07.547Z,99.99
2022-09-26T07:40:57.595Z,99.99
2022-09-26T07:41:47.504Z,99.99
2022-09-26T07:42:37.539Z,99.99
2022-09-26T07:43:53.578Z,99.99
2022-09-26T07:45:02.287Z,99.99
2022-09-26T07:45:29.345Z,99.99
2022-09-26T07:45:58.491Z,99.99
2022-09-26T07:46:47.504Z,99.99
2022-09-26T07:47:37.442Z,99.99
2022-09-26T07:48:27.462Z,99.99
2022-09-26T07:49:17.420Z,99.99
2022-09-26T07:50:07.412Z,99.99
2022-09-26T07:50:57.412Z,99.99
2022-09-26T07:51:47.442Z,99.99
2022-09-26T07:52:37.390Z,99.99
2022-09-26T07:53:27.381Z,99.99
2022-09-26T07:54:17.371Z,99.99
2022-09-26T07:55:07.361Z,99.99
2022-09-26T07:55:57.354Z,99.99
2022-09-26T07:56:47.337Z,99.99
2022-09-26T07:57:37.386Z,99.99
2022-09-26T07:58:27.320Z,99.99
2022-09-26T07:59:17.316Z,99.99
2022-09-26T08:00:07.297Z,99.99
2022-09-26T08:00:58.867Z,99.99
2022-09-26T08:01:47.346Z,99.99
2022-09-26T08:02:37.341Z,99.99
2022-09-26T08:03:27.290Z,99.99
2022-09-26T08:04:17.260Z,99.99
2022-09-26T08:05:07.243Z,99.99
2022-09-26T08:05:57.249Z,99.99
2022-09-26T08:06:47.219Z,99.99
2022-09-26T08:07:37.219Z,99.27
2022-09-26T08:08:27.208Z,99.18
2022-09-26T08:09:17.253Z,99.48
2022-09-26T08:10:07.191Z,99.27
2022-09-26T08:11:00.215Z,99.23
2022-09-26T08:11:48.168Z,99.13
2022-09-26T08:12:37.182Z,99.23
2022-09-26T08:13:27.149Z,99.43
2022-09-26T08:14:17.153Z,99.08
2022-09-26T08:15:07.194Z,98.77
2022-09-26T08:15:57.182Z,98.98
2022-09-26T08:16:47.118Z,98.47
2022-09-26T08:17:37.108Z,98.98
2022-09-26T08:18:27.098Z,99.99
2022-09-26T08:19:17.090Z,99.99
2022-09-26T08:20:07.100Z,99.99
2022-09-26T08:20:57.306Z,99.59
2022-09-26T08:21:47.058Z,98.47
2022-09-26T08:22:37.057Z,98.88
2022-09-26T08:23:27.048Z,99.79
2022-09-26T08:24:17.037Z,99.99
2022-09-26T08:25:07.047Z,99.99
2022-09-26T08:25:57.016Z,99.04
2022-09-26T08:26:47.039Z,98.93
2022-09-26T08:27:36.994Z,98.63
2022-09-26T08:28:26.987Z,97.09
2022-09-26T08:29:16.982Z,96.89
2022-09-26T08:30:06.977Z,96.38
2022-09-26T08:30:56.984Z,96.28
2022-09-26T08:31:47.057Z,97.61
2022-09-26T08:32:36.975Z,98.11
2022-09-26T08:33:26.930Z,98.63
2022-09-26T08:34:19.283Z,99.44
2022-09-26T08:35:07.947Z,95.97
2022-09-26T08:35:56.905Z,92.41
2022-09-26T08:36:46.897Z,92.76
2022-09-26T08:37:36.906Z,95.00
2022-09-26T08:38:27.130Z,93.88
2022-09-26T08:39:16.869Z,94.38
2022-09-26T08:40:06.878Z,95.10
2022-09-26T08:40:57.003Z,96.22
2022-09-26T08:41:46.845Z,95.81
2022-09-26T08:42:36.826Z,95.72
2022-09-26T08:43:26.826Z,96.84
2022-09-26T08:44:17.837Z,96.12
2022-09-26T08:45:06.819Z,95.81
2022-09-26T08:45:56.809Z,94.53
2022-09-26T08:46:46.857Z,95.45
2022-09-26T08:47:36.767Z,94.38
2022-09-26T08:48:26.793Z,94.49
2022-09-26T08:49:16.757Z,95.61
2022-09-26T08:50:06.983Z,96.12
2022-09-26T08:50:56.765Z,96.28
2022-09-26T08:51:46.752Z,95.06
2022-09-26T08:52:36.732Z,94.75
2022-09-26T08:53:26.707Z,94.75
2022-09-26T08:54:16.694Z,94.75
2022-09-26T08:55:06.685Z,94.30
2022-09-26T08:55:56.705Z,94.20
2022-09-26T08:56:46.710Z,93.79
2022-09-26T08:57:36.654Z,90.53
2022-09-26T08:58:29.221Z,90.94
2022-09-26T08:59:16.658Z,90.53
2022-09-26T09:00:06.634Z,90.94
2022-09-26T09:00:56.623Z,92.05
2022-09-26T09:01:46.902Z,90.99
2022-09-26T09:02:36.653Z,91.91
2022-09-26T09:03:26.609Z,90.69
2022-09-26T09:04:16.665Z,90.59
2022-09-26T09:05:06.575Z,89.87
2022-09-26T09:05:56.605Z,90.18
2022-09-26T09:06:46.565Z,89.36
2022-09-26T09:07:36.583Z,90.44
2022-09-26T09:08:26.556Z,88.55
2022-09-26T09:09:16.533Z,88.75
2022-09-26T09:10:06.526Z,90.18
2022-09-26T09:10:56.520Z,91.20
2022-09-26T09:11:50.700Z,90.79
2022-09-26T09:12:36.503Z,90.28
2022-09-26T09:13:26.513Z,90.89
2022-09-26T09:14:16.718Z,90.34
2022-09-26T09:15:24.497Z,88.71
2022-09-26T09:15:57.549Z,87.38
2022-09-26T09:16:46.452Z,86.06
2022-09-26T09:17:36.461Z,85.96
2022-09-26T09:18:26.432Z,86.22
2022-09-26T09:19:16.613Z,85.61
2022-09-26T09:20:06.414Z,85.82
2022-09-26T09:20:56.392Z,86.08
2022-09-26T09:21:46.392Z,87.30
2022-09-26T09:22:36.384Z,86.39
2022-09-26T09:23:26.400Z,86.39
2022-09-26T09:24:16.361Z,87.41
2022-09-26T09:25:06.391Z,85.03
2022-09-26T09:25:56.359Z,81.81
2022-09-26T09:27:53.363Z,80.24
2022-09-26T09:28:27.320Z,82.59
2022-09-26T09:29:18.957Z,81.67
2022-09-26T09:30:15.898Z,80.35
2022-09-26T09:30:57.608Z,81.87
2022-09-26T09:31:46.396Z,84.07
2022-09-26T09:32:36.272Z,81.84
2022-09-26T09:33:26.274Z,82.75
2022-09-26T09:34:16.252Z,83.97
2022-09-26T09:35:06.266Z,80.68
2022-09-26T09:35:56.240Z,79.36
2022-09-26T09:36:46.313Z,81.39
2022-09-26T09:37:36.214Z,84.03
2022-09-26T09:38:26.209Z,83.42
2022-09-26T09:39:16.191Z,83.28
2022-09-26T09:40:06.192Z,83.38
2022-09-26T09:40:56.266Z,82.06
2022-09-26T09:41:46.172Z,82.57
2022-09-26T09:42:36.394Z,83.83
2022-09-26T09:43:26.159Z,83.08
2022-09-26T09:44:16.166Z,83.59
2022-09-26T09:45:06.130Z,81.96
2022-09-26T09:45:56.122Z,79.02
2022-09-26T09:46:46.173Z,81.86
2022-09-26T09:47:36.112Z,78.41
2022-09-26T09:48:31.365Z,75.12
2022-09-26T09:49:16.090Z,72.62
2022-09-26T09:50:06.089Z,76.28
2022-09-26T09:50:56.071Z,74.75
2022-09-26T09:51:46.079Z,75.36
2022-09-26T09:52:36.050Z,74.75
2022-09-26T09:53:26.051Z,73.13
2022-09-26T09:54:16.151Z,76.37
2022-09-26T09:55:06.030Z,74.28
2022-09-26T09:55:56.027Z,77.12
2022-09-26T09:56:46.011Z,77.22
2022-09-26T09:57:36.001Z,75.16
2022-09-26T09:58:25.989Z,76.88
2022-09-26T09:59:15.983Z,80.94
2022-09-26T10:00:06.006Z,78.20
2022-09-26T10:00:55.970Z,75.16
2022-09-26T10:01:45.950Z,74.10
2022-09-26T10:02:35.960Z,78.27
2022-09-26T10:03:25.930Z,78.27
2022-09-26T10:04:15.997Z,78.88
2022-09-26T10:05:05.939Z,79.28
2022-09-26T10:05:55.930Z,74.92
2022-09-26T10:06:47.354Z,77.12
2022-09-26T10:07:35.942Z,74.48
2022-09-26T10:08:25.882Z,75.90
2022-09-26T10:09:38.674Z,72.85
2022-09-26T10:10:06.861Z,74.31
2022-09-26T10:10:55.849Z,75.43
2022-09-26T10:11:49.141Z,75.52
2022-09-26T10:12:36.941Z,76.54
2022-09-26T10:13:25.822Z,77.15
2022-09-26T10:14:16.013Z,77.05
2022-09-26T10:15:05.804Z,75.32
2022-09-26T10:15:55.875Z,77.45
2022-09-26T10:16:45.787Z,75.83
2022-09-26T10:17:36.718Z,74.51
2022-09-26T10:18:26.991Z,75.70
2022-09-26T10:19:15.765Z,76.81
2022-09-26T10:20:05.748Z,76.71
2022-09-26T10:20:55.736Z,75.59
2022-09-26T10:21:45.730Z,73.87
2022-09-26T10:22:35.739Z,73.50
2022-09-26T10:23:25.748Z,75.43
2022-09-26T10:24:15.793Z,74.55
2022-09-26T10:25:05.687Z,74.44
2022-09-26T10:25:55.689Z,76.37
2022-09-26T10:26:45.675Z,75.32
2022-09-26T10:27:35.682Z,72.28
2022-09-26T10:28:25.653Z,72.38
2022-09-26T10:29:15.858Z,75.02
2022-09-26T10:30:05.638Z,76.44
2022-09-26T10:30:55.686Z,74.71
2022-09-26T10:31:45.664Z,76.03
2022-09-26T10:32:35.606Z,74.10
2022-09-26T10:33:25.605Z,74.17
2022-09-26T10:34:15.755Z,72.34
2022-09-26T10:35:05.787Z,71.94
2022-09-26T10:35:55.567Z,75.12
2022-09-26T10:36:45.565Z,73.80
2022-09-26T10:37:35.565Z,73.39
2022-09-26T10:38:25.547Z,73.60
2022-09-26T10:39:15.748Z,71.26
2022-09-26T10:40:05.526Z,72.17
2022-09-26T10:40:55.641Z,72.52
2022-09-26T10:41:45.520Z,72.41
2022-09-26T10:42:35.497Z,74.55
2022-09-26T10:43:25.487Z,76.07
2022-09-26T10:44:15.610Z,74.24